Time;durP1;ratioP1;P1;durP2;ratioP2;P2;SDS_P1;SDS_P2;PMS_P1;PMS_P2;Temp;Humidity;BMP_temperature;BMP_pressure;BME280_temperature;BME280_humidity;BME280_pressure;Samples;Min_cycle;Max_cycle;Signal;HPM_P1;HPM_P2
2022/07/19 00:00:01;;;;;;;1.20;1.08;;;24.70;58.50;;;;;;5084043;27;20040;-22
2022/07/19 00:02:26;;;;;;;1.00;1.00;;;24.70;58.50;;;;;;5081481;27;20044;-27
2022/07/19 00:04:52;;;;;;;0.95;0.90;;;24.80;58.60;;;;;;5081860;27;20040;-22
2022/07/19 00:07:18;;;;;;;0.90;0.90;;;24.70;58.50;;;;;;5084780;27;20039;-22
2022/07/19 00:09:43;;;;;;;1.20;1.20;;;24.70;58.40;;;;;;5083744;27;20054;-26
2022/07/19 00:12:10;;;;;;;1.15;0.95;;;24.70;58.40;;;;;;5080939;27;20494;-22
2022/07/19 00:14:36;;;;;;;1.63;0.95;;;24.70;58.60;;;;;;5063897;28;20043;-23
2022/07/19 00:17:01;;;;;;;1.17;1.08;;;24.70;58.40;;;;;;5080310;28;20052;-25
2022/07/19 00:19:27;;;;;;;1.33;1.30;;;24.70;58.50;;;;;;5082766;27;20051;-24
2022/07/19 00:21:53;;;;;;;1.27;1.17;;;24.70;58.50;;;;;;5083349;27;20020;-21
2022/07/19 00:24:18;;;;;;;1.13;1.10;;;24.70;58.60;;;;;;5082414;27;20452;-23
2022/07/19 00:26:44;;;;;;;0.90;0.90;;;24.70;58.50;;;;;;5082538;27;20032;-22
2022/07/19 00:29:09;;;;;;;1.77;0.90;;;24.70;58.60;;;;;;5080632;28;20411;-21
2022/07/19 00:31:36;;;;;;;1.02;0.93;;;24.70;58.50;;;;;;5082609;27;20118;-23
2022/07/19 00:34:01;;;;;;;1.33;1.23;;;24.70;58.60;;;;;;5080454;27;20040;-20
2022/07/19 00:36:27;;;;;;;0.90;0.90;;;24.70;58.60;;;;;;5086537;27;20062;-18
2022/07/19 00:38:52;;;;;;;1.20;0.93;;;24.70;58.40;;;;;;5080711;27;20137;-19
2022/07/19 00:41:18;;;;;;;0.93;0.93;;;24.70;58.50;;;;;;5083916;27;20040;-18
2022/07/19 00:43:44;;;;;;;0.82;0.82;;;24.70;58.60;;;;;;5088001;27;20039;-18
2022/07/19 00:46:14;;;;;;;1.00;1.00;;;24.70;58.50;;;;;;5084902;27;20393;-18
2022/07/19 00:48:40;;;;;;;1.20;1.10;;;24.70;58.40;;;;;;5084794;27;20139;-19
2022/07/19 00:51:06;;;;;;;1.10;1.00;;;24.70;58.40;;;;;;5085693;28;20024;-18
2022/07/19 00:53:32;;;;;;;1.00;0.95;;;24.70;58.60;;;;;;5083483;27;20051;-18
2022/07/19 00:55:57;;;;;;;0.95;0.95;;;24.70;58.60;;;;;;5084681;28;20504;-18
2022/07/19 00:58:23;;;;;;;1.00;1.00;;;24.70;58.70;;;;;;5084891;27;20145;-18
2022/07/19 01:00:48;;;;;;;1.75;1.10;;;24.70;58.60;;;;;;5087423;28;20032;-19
2022/07/19 01:03:14;;;;;;;0.85;0.85;;;24.70;58.60;;;;;;5083148;27;20549;-18
2022/07/19 01:05:40;;;;;;;1.10;1.00;;;24.70;58.60;;;;;;5083182;28;20056;-18
2022/07/19 01:08:05;;;;;;;1.40;1.30;;;24.70;58.60;;;;;;5084624;28;20039;-22
2022/07/19 01:10:31;;;;;;;1.02;1.02;;;24.70;58.60;;;;;;5082449;27;20050;-18
2022/07/19 01:12:57;;;;;;;1.00;0.90;;;24.70;58.50;;;;;;5083716;28;20109;-27
2022/07/19 01:15:25;;;;;;;1.30;1.20;;;24.70;58.60;;;;;;5083198;27;20406;-18
2022/07/19 01:17:51;;;;;;;1.20;1.20;;;24.70;58.60;;;;;;5082823;28;20524;-18
2022/07/19 01:20:16;;;;;;;1.23;1.00;;;24.70;58.60;;;;;;5085037;27;20044;-19
2022/07/19 01:22:42;;;;;;;2.33;1.10;;;24.60;58.60;;;;;;5086296;27;20032;-18
2022/07/19 01:25:08;;;;;;;1.30;1.30;;;24.70;58.60;;;;;;5083211;28;20040;-18
2022/07/19 01:27:45;;;;;;;1.40;1.30;;;24.70;58.40;;;;;;5084090;27;20528;-18
2022/07/19 01:30:18;;;;;;;0.95;0.95;;;24.70;58.50;;;;;;5084363;28;20562;-19
2022/07/19 01:32:45;;;;;;;1.08;1.05;;;24.70;58.50;;;;;;5084675;27;20036;-19
2022/07/19 01:35:10;;;;;;;0.95;0.95;;;24.70;58.50;;;;;;5084070;27;20044;-17
2022/07/19 01:37:37;;;;;;;0.90;0.90;;;24.70;58.50;;;;;;5084531;27;20051;-19
2022/07/19 01:40:06;;;;;;;1.00;1.00;;;24.70;58.60;;;;;;5085983;27;20116;-19
2022/07/19 01:42:32;;;;;;;1.20;1.20;;;24.70;58.60;;;;;;5083399;27;20532;-18
2022/07/19 01:44:58;;;;;;;1.17;0.95;;;24.70;58.50;;;;;;5083944;27;20044;-18
2022/07/19 01:47:23;;;;;;;1.50;1.40;;;24.70;58.50;;;;;;5081975;27;20485;-19
2022/07/19 01:49:49;;;;;;;1.05;1.05;;;24.70;58.50;;;;;;5084126;27;20048;-18
2022/07/19 01:52:15;;;;;;;1.02;1.00;;;24.70;58.50;;;;;;5084558;27;20052;-19
2022/07/19 01:54:40;;;;;;;0.90;0.90;;;24.70;58.60;;;;;;5081968;27;20071;-18
2022/07/19 01:57:06;;;;;;;0.98;0.98;;;24.70;58.60;;;;;;5083536;28;20059;-18
2022/07/19 01:59:31;;;;;;;1.13;1.13;;;24.70;58.40;;;;;;5083753;27;20111;-20
2022/07/19 02:01:57;;;;;;;1.17;1.10;;;24.80;58.40;;;;;;5084761;27;20051;-18
2022/07/19 02:04:22;;;;;;;1.38;1.27;;;24.70;58.60;;;;;;5083948;27;20112;-18
2022/07/19 02:06:48;;;;;;;1.27;1.17;;;24.70;58.50;;;;;;5084843;28;20044;-18
2022/07/19 02:09:13;;;;;;;0.98;0.98;;;24.70;58.60;;;;;;5081511;28;20510;-18
2022/07/19 02:11:39;;;;;;;1.20;1.20;;;24.70;58.60;;;;;;5082882;27;20217;-18
2022/07/19 02:14:07;;;;;;;1.00;1.00;;;24.70;58.60;;;;;;5082437;28;20036;-18
2022/07/19 02:16:32;;;;;;;1.42;1.33;;;24.70;58.50;;;;;;5080353;27;20059;-20
2022/07/19 02:18:58;;;;;;;1.27;1.20;;;24.70;58.50;;;;;;5084632;27;20047;-18
2022/07/19 02:21:24;;;;;;;1.15;1.02;;;24.70;58.50;;;;;;5084531;27;20480;-20
2022/07/19 02:23:49;;;;;;;1.10;1.10;;;24.70;58.50;;;;;;5082261;27;20044;-18
2022/07/19 02:26:15;;;;;;;1.02;1.00;;;24.70;58.50;;;;;;5082525;27;20044;-19
2022/07/19 02:28:40;;;;;;;1.20;1.10;;;24.70;58.50;;;;;;5083701;27;20028;-18
2022/07/19 02:31:06;;;;;;;1.27;1.17;;;24.70;58.50;;;;;;5083494;27;20410;-18
2022/07/19 02:33:31;;;;;;;1.48;1.38;;;24.70;58.60;;;;;;5083222;27;20043;-19
2022/07/19 02:35:57;;;;;;;1.02;1.02;;;24.70;58.60;;;;;;5082676;27;20051;-18
2022/07/19 02:38:23;;;;;;;1.20;1.20;;;24.70;58.50;;;;;;5080133;27;20131;-18
2022/07/19 02:40:48;;;;;;;1.10;1.10;;;24.70;58.50;;;;;;5082662;27;20080;-19
2022/07/19 02:43:14;;;;;;;1.15;1.15;;;24.70;58.50;;;;;;5084584;27;20043;-17
2022/07/19 02:45:39;;;;;;;1.30;1.27;;;24.70;58.50;;;;;;5082296;27;20044;-19
2022/07/19 02:48:05;;;;;;;1.00;1.00;;;24.70;58.50;;;;;;5084297;27;20031;-18
2022/07/19 02:50:31;;;;;;;1.00;1.00;;;24.70;58.50;;;;;;5082302;27;20044;-18
2022/07/19 02:52:57;;;;;;;1.00;1.00;;;24.70;58.50;;;;;;5081896;27;20042;-19
2022/07/19 02:55:22;;;;;;;1.10;1.10;;;24.70;58.50;;;;;;5082621;28;20062;-18
2022/07/19 02:57:48;;;;;;;1.20;1.20;;;24.70;58.50;;;;;;5084135;27;20034;-18
2022/07/19 03:00:14;;;;;;;1.20;1.10;;;24.70;58.40;;;;;;5082919;27;20489;-18
2022/07/19 03:02:39;;;;;;;1.30;1.30;;;24.70;58.50;;;;;;5081529;28;20431;-18
2022/07/19 03:05:06;;;;;;;1.30;1.20;;;24.70;58.60;;;;;;5083502;27;20170;-18
2022/07/19 03:07:31;;;;;;;1.10;1.10;;;24.70;58.40;;;;;;5082990;27;20028;-19
2022/07/19 03:09:57;;;;;;;0.90;0.90;;;24.60;58.50;;;;;;5084930;27;20040;-19
2022/07/19 03:12:23;;;;;;;1.20;1.10;;;24.70;58.50;;;;;;5082040;27;20126;-19
2022/07/19 03:14:48;;;;;;;1.05;1.05;;;24.70;58.60;;;;;;5081151;27;20043;-18
2022/07/19 03:17:14;;;;;;;1.15;0.90;;;24.70;58.50;;;;;;5082143;27;20040;-18
2022/07/19 03:19:40;;;;;;;0.73;0.73;;;24.70;58.50;;;;;;5082961;27;20127;-18
2022/07/19 03:22:05;;;;;;;1.50;1.02;;;24.60;58.40;;;;;;5084761;27;20032;-19
2022/07/19 03:24:31;;;;;;;0.90;0.90;;;24.70;58.60;;;;;;5082572;28;20131;-19
2022/07/19 03:26:56;;;;;;;1.13;1.13;;;24.70;58.60;;;;;;5082825;27;20055;-23
2022/07/19 03:29:22;;;;;;;0.90;0.90;;;24.60;58.60;;;;;;5080573;27;20551;-19
2022/07/19 03:31:47;;;;;;;1.30;1.20;;;24.60;58.50;;;;;;5080875;28;20036;-18
2022/07/19 03:34:13;;;;;;;1.10;1.00;;;24.60;58.60;;;;;;5086421;27;20075;-18
2022/07/19 03:36:39;;;;;;;1.17;1.00;;;24.60;58.60;;;;;;5081988;27;20044;-18
2022/07/19 03:39:04;;;;;;;1.27;1.17;;;24.70;58.60;;;;;;5081225;27;20039;-18
2022/07/19 03:41:30;;;;;;;1.25;0.93;;;24.60;58.60;;;;;;5082213;27;20058;-18
2022/07/19 03:43:55;;;;;;;1.13;1.02;;;24.70;58.70;;;;;;5083056;27;20115;-18
2022/07/19 03:46:21;;;;;;;1.80;1.20;;;24.70;58.60;;;;;;5083483;27;20093;-18
2022/07/19 03:48:47;;;;;;;1.10;1.00;;;24.60;58.50;;;;;;5082353;27;20042;-18
2022/07/19 03:51:13;;;;;;;1.30;1.20;;;24.70;58.60;;;;;;5082437;27;20032;-19
2022/07/19 03:53:39;;;;;;;0.93;0.93;;;24.70;58.60;;;;;;5081923;27;20074;-19
2022/07/19 03:56:05;;;;;;;0.90;0.90;;;24.70;58.60;;;;;;5081328;28;20566;-18
2022/07/19 03:58:30;;;;;;;1.00;1.00;;;24.70;58.60;;;;;;5082955;27;22089;-18
2022/07/19 04:00:56;;;;;;;1.52;1.42;;;24.70;58.50;;;;;;5083329;27;20044;-18
2022/07/19 04:03:22;;;;;;;1.05;1.05;;;24.70;58.60;;;;;;5081408;27;20071;-19
2022/07/19 04:05:47;;;;;;;1.10;1.10;;;24.70;58.50;;;;;;5082454;27;20104;-18
2022/07/19 04:08:14;;;;;;;0.93;0.93;;;24.60;58.50;;;;;;5082162;27;20043;-19
2022/07/19 04:10:40;;;;;;;1.13;1.13;;;24.70;58.60;;;;;;5081816;28;20052;-19
2022/07/19 04:13:06;;;;;;;1.17;1.08;;;24.70;58.60;;;;;;5083734;27;20060;-19
2022/07/19 04:15:31;;;;;;;1.00;1.00;;;24.60;58.60;;;;;;5084071;27;20102;-18
2022/07/19 04:17:57;;;;;;;0.90;0.90;;;24.70;58.60;;;;;;5086507;27;20100;-18
2022/07/19 04:20:22;;;;;;;1.27;1.17;;;24.60;58.60;;;;;;5086076;27;20035;-19
2022/07/19 04:22:48;;;;;;;1.00;1.00;;;24.60;58.60;;;;;;5084689;27;20044;-19
2022/07/19 04:25:14;;;;;;;1.08;1.08;;;24.70;58.60;;;;;;5087345;28;20383;-18
2022/07/19 04:27:39;;;;;;;1.05;1.05;;;24.70;58.70;;;;;;5086027;27;20047;-18
2022/07/19 04:30:05;;;;;;;0.98;0.98;;;24.70;58.60;;;;;;5083527;28;20075;-19
2022/07/19 04:32:33;;;;;;;0.98;0.98;;;24.60;58.60;;;;;;5083866;27;20048;-18
2022/07/19 04:34:59;;;;;;;1.10;1.00;;;24.70;58.60;;;;;;5085533;27;20044;-18
2022/07/19 04:37:25;;;;;;;1.20;1.20;;;24.70;58.40;;;;;;5085158;27;20044;-18
2022/07/19 04:39:50;;;;;;;1.55;0.93;;;24.70;58.60;;;;;;5086707;27;20525;-18
2022/07/19 04:42:16;;;;;;;1.40;1.40;;;24.70;58.40;;;;;;5086818;28;20040;-18
2022/07/19 04:44:41;;;;;;;1.00;1.00;;;24.70;58.50;;;;;;5083439;27;20525;-23
2022/07/19 04:47:07;;;;;;;1.10;1.10;;;24.70;58.60;;;;;;5084829;28;20044;-20
2022/07/19 04:49:32;;;;;;;1.40;1.00;;;24.70;58.40;;;;;;5086453;27;20186;-19
2022/07/19 04:51:58;;;;;;;0.90;0.90;;;24.60;58.50;;;;;;5086152;27;20407;-19
2022/07/19 04:54:23;;;;;;;0.95;0.95;;;24.70;58.60;;;;;;5083204;27;20075;-18
2022/07/19 04:56:49;;;;;;;0.90;0.90;;;24.70;58.60;;;;;;5082377;28;20048;-18
2022/07/19 04:59:15;;;;;;;1.10;1.10;;;24.70;58.50;;;;;;5085446;27;20520;-19
2022/07/19 05:01:40;;;;;;;0.85;0.85;;;24.70;58.60;;;;;;5082396;27;20048;-18
2022/07/19 05:04:06;;;;;;;1.00;1.00;;;24.60;58.50;;;;;;5083482;27;20595;-18
2022/07/19 05:06:31;;;;;;;2.60;1.90;;;24.70;58.30;;;;;;5083990;27;20040;-18
2022/07/19 05:08:57;;;;;;;3.17;1.70;;;24.80;55.10;;;;;;5083818;28;20043;-19
2022/07/19 05:11:23;;;;;;;5.88;2.30;;;24.70;54.70;;;;;;4724159;27;10000044;-19
2022/07/19 05:13:48;;;;;;;4.75;1.80;;;24.80;54.00;;;;;;5078436;27;20043;-21
2022/07/19 05:16:14;;;;;;;4.28;2.10;;;24.80;54.30;;;;;;5079242;28;20411;-24
2022/07/19 05:18:40;;;;;;;2.50;2.28;;;24.80;54.50;;;;;;5077580;27;20105;-20
2022/07/19 05:21:05;;;;;;;3.30;2.53;;;24.80;53.50;;;;;;5073826;28;20030;-22
2022/07/19 05:23:31;;;;;;;9.48;3.00;;;24.80;53.70;;;;;;5078333;27;20119;-21
2022/07/19 05:25:57;;;;;;;3.85;2.33;;;24.70;53.80;;;;;;5077498;27;20044;-21
2022/07/19 05:28:23;;;;;;;3.08;2.53;;;24.80;53.40;;;;;;5076236;27;20032;-20
2022/07/19 05:30:48;;;;;;;2.85;2.42;;;24.80;53.50;;;;;;5079574;27;20067;-21
2022/07/19 05:33:15;;;;;;;7.28;2.45;;;24.80;53.30;;;;;;5071106;27;20052;-20
2022/07/19 05:35:41;;;;;;;2.58;2.22;;;24.80;53.80;;;;;;5075806;28;20576;-20
2022/07/19 05:38:07;;;;;;;2.33;2.13;;;24.80;53.50;;;;;;5076126;27;20115;-21
2022/07/19 05:40:32;;;;;;;3.35;2.20;;;24.80;53.60;;;;;;5073590;27;20052;-21
2022/07/19 05:42:58;;;;;;;6.57;2.70;;;24.80;53.70;;;;;;5078562;27;20081;-21
2022/07/19 05:45:24;;;;;;;2.97;2.75;;;24.80;53.20;;;;;;5076162;27;20048;-17
2022/07/19 05:47:49;;;;;;;2.80;2.55;;;24.80;53.60;;;;;;5076182;27;21234;-19
2022/07/19 05:50:15;;;;;;;7.55;2.78;;;24.90;53.70;;;;;;5076298;27;20051;-18
2022/07/19 05:52:40;;;;;;;2.92;2.40;;;24.80;53.40;;;;;;4718878;27;10000030;-18
2022/07/19 05:55:06;;;;;;;5.45;2.53;;;24.90;53.70;;;;;;5075210;28;20228;-21
2022/07/19 05:57:32;;;;;;;2.70;1.90;;;24.90;54.30;;;;;;5073464;27;20188;-21
2022/07/19 05:59:58;;;;;;;3.20;2.70;;;24.80;53.80;;;;;;5069536;28;20663;-21
2022/07/19 06:02:24;;;;;;;2.70;2.17;;;24.70;54.00;;;;;;5075825;28;20067;-21
2022/07/19 06:04:49;;;;;;;2.92;2.30;;;24.70;54.40;;;;;;5073289;28;20111;-21
2022/07/19 06:07:15;;;;;;;3.92;2.22;;;24.70;54.40;;;;;;5074298;28;20510;-21
2022/07/19 06:09:40;;;;;;;2.20;2.00;;;24.70;54.80;;;;;;5075826;27;20136;-20
2022/07/19 06:12:06;;;;;;;2.47;2.28;;;24.80;54.60;;;;;;5071467;27;20051;-31
2022/07/19 06:14:32;;;;;;;2.78;2.58;;;24.90;54.80;;;;;;5069460;27;20438;-20
2022/07/19 06:16:57;;;;;;;3.08;2.75;;;24.90;54.90;;;;;;5074715;27;20430;-21
2022/07/19 06:19:23;;;;;;;4.82;2.60;;;24.90;54.60;;;;;;5076189;28;20052;-21
2022/07/19 06:21:48;;;;;;;3.35;2.58;;;24.90;54.80;;;;;;5076059;27;20051;-21
2022/07/19 06:24:14;;;;;;;4.65;2.50;;;24.80;54.90;;;;;;5072076;27;20048;-21
2022/07/19 06:26:39;;;;;;;2.42;2.22;;;24.80;55.30;;;;;;5069013;27;20787;-21
2022/07/19 06:29:06;;;;;;;2.83;2.50;;;24.90;55.40;;;;;;5079211;27;20112;-21
2022/07/19 06:31:32;;;;;;;3.40;2.10;;;24.80;55.50;;;;;;5078123;27;20403;-20
2022/07/19 06:33:57;;;;;;;4.88;2.30;;;24.90;55.50;;;;;;5081223;27;20062;-25
2022/07/19 06:36:23;;;;;;;3.13;2.55;;;24.80;55.80;;;;;;5079903;27;20245;-24
2022/07/19 06:38:49;;;;;;;2.45;2.25;;;24.80;55.90;;;;;;5078853;27;20040;-27
2022/07/19 06:41:15;;;;;;;2.47;2.28;;;24.80;55.70;;;;;;5081959;27;20089;-28
2022/07/19 06:43:40;;;;;;;3.17;2.42;;;24.80;55.90;;;;;;5078842;27;20044;-27
2022/07/19 06:46:06;;;;;;;2.53;2.33;;;24.70;56.10;;;;;;5081524;28;20032;-26
2022/07/19 06:48:32;;;;;;;3.50;2.70;;;24.80;56.50;;;;;;5077353;28;20086;-27
2022/07/19 06:50:57;;;;;;;3.10;2.78;;;24.80;56.50;;;;;;5084399;28;20414;-24
2022/07/19 06:53:23;;;;;;;4.45;2.90;;;24.80;56.90;;;;;;5080709;27;20427;-22
2022/07/19 06:55:48;;;;;;;3.78;2.40;;;24.80;57.20;;;;;;5083036;27;20062;-22
2022/07/19 06:58:14;;;;;;;6.13;2.88;;;24.80;57.90;;;;;;5084163;27;20044;-21
2022/07/19 07:00:40;;;;;;;4.03;2.40;;;24.80;57.30;;;;;;5082367;27;20089;-24
2022/07/19 07:03:05;;;;;;;2.90;2.70;;;24.80;57.20;;;;;;5082647;27;20537;-23
2022/07/19 07:05:31;;;;;;;2.65;2.45;;;24.70;57.20;;;;;;5082073;27;20105;-23
2022/07/19 07:07:57;;;;;;;3.63;2.70;;;24.80;57.10;;;;;;5082794;27;20051;-21
2022/07/19 07:10:22;;;;;;;3.22;2.13;;;24.80;57.80;;;;;;5086066;27;20059;-23
2022/07/19 07:12:49;;;;;;;2.42;2.10;;;24.80;57.10;;;;;;5085214;27;20113;-21
2022/07/19 07:15:14;;;;;;;2.22;2.05;;;24.80;57.10;;;;;;5080328;27;20115;-23
2022/07/19 07:17:40;;;;;;;2.67;2.30;;;24.70;57.10;;;;;;5082841;27;20040;-22
2022/07/19 07:20:06;;;;;;;2.72;2.08;;;24.80;57.10;;;;;;5083749;27;20032;-23
2022/07/19 07:22:33;;;;;;;2.63;2.35;;;24.80;57.20;;;;;;5084355;27;20040;-23
2022/07/19 07:24:58;;;;;;;2.55;2.35;;;24.70;57.20;;;;;;5085527;28;20436;-22
2022/07/19 07:27:24;;;;;;;2.47;2.15;;;24.70;57.10;;;;;;5084626;27;20040;-26
2022/07/19 07:29:49;;;;;;;2.88;2.08;;;24.80;57.20;;;;;;5081137;27;20075;-21
2022/07/19 07:32:15;;;;;;;4.70;2.40;;;24.80;57.30;;;;;;5084300;27;20040;-21
2022/07/19 07:34:41;;;;;;;2.47;2.25;;;24.80;57.30;;;;;;5083306;27;20071;-24
2022/07/19 07:37:06;;;;;;;3.38;2.20;;;24.80;57.30;;;;;;5081584;28;20051;-25
2022/07/19 07:39:32;;;;;;;2.47;2.25;;;24.80;57.50;;;;;;5079435;27;20072;-27
2022/07/19 07:41:57;;;;;;;2.55;2.35;;;24.80;57.60;;;;;;5083253;27;20048;-21
2022/07/19 07:44:23;;;;;;;4.05;2.33;;;24.80;57.60;;;;;;5081091;27;20113;-24
2022/07/19 07:46:48;;;;;;;4.18;2.08;;;24.80;57.70;;;;;;5081862;27;20456;-23
2022/07/19 07:49:14;;;;;;;4.13;2.50;;;24.80;57.70;;;;;;5082137;27;20513;-23
2022/07/19 07:51:40;;;;;;;2.83;2.47;;;24.70;57.70;;;;;;5082651;27;20036;-22
2022/07/19 07:54:05;;;;;;;2.90;2.13;;;24.80;57.70;;;;;;5083138;28;20040;-25
2022/07/19 07:56:31;;;;;;;2.35;2.15;;;24.80;57.80;;;;;;5083721;27;20052;-17
2022/07/19 07:58:56;;;;;;;3.33;2.15;;;24.80;57.70;;;;;;5080824;27;20048;-22
2022/07/19 08:01:22;;;;;;;2.72;2.17;;;24.80;57.80;;;;;;5084744;28;20048;-22
2022/07/19 08:03:47;;;;;;;2.75;2.55;;;24.80;57.80;;;;;;5080715;27;20499;-21
2022/07/19 08:06:15;;;;;;;2.58;2.38;;;24.80;57.90;;;;;;5083775;27;20044;-22
2022/07/19 08:08:41;;;;;;;2.80;2.60;;;24.80;58.50;;;;;;5079429;28;20093;-23
2022/07/19 08:11:06;;;;;;;2.55;2.35;;;24.80;57.80;;;;;;5081043;27;20044;-22
2022/07/19 08:13:32;;;;;;;3.25;2.60;;;24.80;57.90;;;;;;5081063;27;20040;-22
2022/07/19 08:15:58;;;;;;;2.42;2.33;;;24.80;57.90;;;;;;5083541;27;20052;-26
2022/07/19 08:18:23;;;;;;;3.05;2.35;;;24.80;58.00;;;;;;5081965;27;20406;-23
2022/07/19 08:20:49;;;;;;;2.67;2.58;;;24.80;58.00;;;;;;5083099;27;20063;-23
2022/07/19 08:23:14;;;;;;;4.03;3.08;;;24.80;58.00;;;;;;5082333;27;20449;-21
2022/07/19 08:25:40;;;;;;;2.90;2.70;;;24.80;58.10;;;;;;5081437;27;20052;-25
2022/07/19 08:28:05;;;;;;;3.03;2.80;;;24.80;58.00;;;;;;5083152;28;20032;-24
2022/07/19 08:30:31;;;;;;;3.17;2.88;;;24.80;58.10;;;;;;5085150;27;20516;-26
2022/07/19 08:32:57;;;;;;;3.00;2.67;;;24.80;58.10;;;;;;5080419;27;20068;-24
2022/07/19 08:35:22;;;;;;;2.67;2.47;;;24.70;58.20;;;;;;5079327;27;20040;-23
2022/07/19 08:37:48;;;;;;;3.08;2.78;;;24.80;58.20;;;;;;5081985;28;20055;-22
2022/07/19 08:40:14;;;;;;;3.38;3.17;;;24.80;58.20;;;;;;5083835;27;20128;-21
2022/07/19 08:42:39;;;;;;;3.78;3.30;;;24.80;58.40;;;;;;5081527;27;20044;-24
2022/07/19 08:45:07;;;;;;;2.83;2.70;;;24.80;58.30;;;;;;5081034;28;20054;-22
2022/07/19 08:47:33;;;;;;;3.85;3.25;;;24.80;58.30;;;;;;5082274;27;20046;-24
2022/07/19 08:49:59;;;;;;;4.47;3.20;;;24.80;58.30;;;;;;5080263;28;20126;-22
2022/07/19 08:52:25;;;;;;;2.88;2.67;;;24.80;58.30;;;;;;5084136;27;20053;-21
2022/07/19 08:54:50;;;;;;;3.08;2.88;;;24.80;58.30;;;;;;5095050;27;20502;-21
2022/07/19 09:00:00;;;;;;;;;;;24.80;58.30;;;;;;5078820;27;20469;-27
2022/07/19 09:02:26;;;;;;;2.83;2.70;;;24.80;58.30;;;;;;5085866;27;20422;-21
2022/07/19 09:05:08;;;;;;;3.15;2.95;;;24.90;58.40;;;;;;5081392;27;20049;-21
2022/07/19 09:07:35;;;;;;;3.28;2.83;;;24.80;58.40;;;;;;5086619;28;20513;-25
2022/07/19 09:10:20;;;;;;;3.80;3.55;;;24.80;58.40;;;;;;5082389;27;20032;-26
2022/07/19 09:13:05;;;;;;;3.47;3.28;;;24.80;58.40;;;;;;5083025;27;20036;-24
2022/07/19 09:15:45;;;;;;;3.35;3.15;;;24.80;58.40;;;;;;5084705;28;20032;-30
2022/07/19 09:18:31;;;;;;;3.70;3.40;;;24.80;58.50;;;;;;5083590;27;20043;-24
2022/07/19 09:20:58;;;;;;;3.88;3.58;;;24.90;58.50;;;;;;5086016;27;20486;-21
2022/07/19 09:23:24;;;;;;;4.20;4.00;;;24.90;58.50;;;;;;5085492;27;20040;-21
2022/07/19 09:25:52;;;;;;;3.30;2.92;;;24.80;58.50;;;;;;5085920;27;20391;-21
2022/07/19 09:28:19;;;;;;;4.15;3.85;;;24.90;58.60;;;;;;5085641;27;20063;-21
2022/07/19 09:30:45;;;;;;;3.60;3.40;;;24.90;58.60;;;;;;5084680;27;20040;-23
2022/07/19 09:33:12;;;;;;;3.75;3.55;;;24.90;58.60;;;;;;5083975;27;20082;-26
2022/07/19 09:35:46;;;;;;;3.70;3.42;;;24.90;58.60;;;;;;5085077;28;20516;-27
2022/07/19 09:38:24;;;;;;;4.18;3.95;;;24.80;58.60;;;;;;5082196;28;20040;-26
2022/07/19 09:40:52;;;;;;;3.72;3.42;;;24.90;59.30;;;;;;5083556;27;20036;-21
2022/07/19 09:43:19;;;;;;;4.60;4.40;;;24.90;58.70;;;;;;5084668;28;20123;-22
2022/07/19 09:45:44;;;;;;;3.88;3.75;;;24.90;58.70;;;;;;5085281;27;20039;-22
2022/07/19 09:48:10;;;;;;;4.07;3.78;;;24.90;58.80;;;;;;5083709;28;20515;-24
2022/07/19 09:50:36;;;;;;;3.97;3.72;;;24.90;59.40;;;;;;5085629;28;20025;-24
2022/07/19 09:53:02;;;;;;;4.38;4.10;;;24.90;58.80;;;;;;5082316;27;20497;-27
2022/07/19 09:55:28;;;;;;;4.35;4.05;;;24.80;58.80;;;;;;5084774;27;20506;-25
2022/07/19 09:57:53;;;;;;;3.97;3.78;;;24.90;58.90;;;;;;5084054;28;20044;-24
2022/07/19 10:00:20;;;;;;;4.32;4.03;;;24.90;58.80;;;;;;5066854;28;20514;-23
2022/07/19 10:02:53;;;;;;;3.80;3.60;;;24.90;58.90;;;;;;5084818;28;20044;-23
2022/07/19 10:05:19;;;;;;;3.93;3.73;;;24.90;58.90;;;;;;5085582;27;20036;-32
2022/07/19 10:07:45;;;;;;;3.85;3.65;;;24.90;58.90;;;;;;5085117;27;20283;-24
2022/07/19 10:10:12;;;;;;;3.88;3.67;;;24.90;58.90;;;;;;5083793;28;20051;-26
2022/07/19 10:12:39;;;;;;;4.38;4.07;;;24.90;58.90;;;;;;5084998;28;20044;-21
2022/07/19 10:15:08;;;;;;;4.05;3.85;;;24.90;59.00;;;;;;5082744;28;20520;-25
2022/07/19 10:17:44;;;;;;;3.47;3.28;;;24.90;58.90;;;;;;5085800;27;20055;-21
2022/07/19 10:20:10;;;;;;;4.18;3.97;;;24.90;59.00;;;;;;5081572;28;20036;-21
2022/07/19 10:22:38;;;;;;;4.38;4.18;;;24.90;59.00;;;;;;5084652;28;25011;-22
2022/07/19 10:25:04;;;;;;;4.30;4.07;;;24.90;59.10;;;;;;5080457;27;20071;-25
2022/07/19 10:27:29;;;;;;;4.90;4.40;;;24.90;59.00;;;;;;5085806;27;20055;-26
2022/07/19 10:29:58;;;;;;;4.43;4.10;;;24.90;59.00;;;;;;5083170;27;20028;-22
2022/07/19 10:32:30;;;;;;;4.00;3.72;;;24.90;59.10;;;;;;5082614;27;20047;-24
2022/07/19 10:35:23;;;;;;;3.78;3.58;;;24.90;59.10;;;;;;5081392;27;20557;-22
2022/07/19 10:37:53;;;;;;;4.10;3.90;;;24.90;59.20;;;;;;5084495;27;20683;-27
2022/07/19 10:40:40;;;;;;;4.40;4.10;;;25.00;59.20;;;;;;5083242;28;20522;-27
2022/07/19 10:43:13;;;;;;;4.22;4.00;;;25.00;59.10;;;;;;5083522;27;20215;-26
2022/07/19 10:45:57;;;;;;;4.20;3.90;;;24.90;59.20;;;;;;5083205;28;20135;-22
2022/07/19 10:48:41;;;;;;;3.72;3.53;;;24.90;59.30;;;;;;5079394;27;20070;-22
2022/07/19 10:51:11;;;;;;;3.95;3.75;;;24.90;59.30;;;;;;5083329;27;20028;-21
2022/07/19 10:53:40;;;;;;;3.63;3.33;;;25.00;59.20;;;;;;5082134;28;20181;-24
2022/07/19 10:56:23;;;;;;;3.78;3.58;;;24.90;59.30;;;;;;5083643;28;20044;-21
2022/07/19 10:58:50;;;;;;;4.03;3.75;;;24.90;59.40;;;;;;5077966;27;20656;-25
2022/07/19 11:01:18;;;;;;;3.88;3.67;;;25.00;59.40;;;;;;5085019;28;20044;-25
2022/07/19 11:03:43;;;;;;;4.03;3.83;;;25.00;59.40;;;;;;5082995;27;20055;-24
2022/07/19 11:06:09;;;;;;;4.25;4.05;;;25.00;59.40;;;;;;5067102;28;20044;-33
2022/07/19 11:08:36;;;;;;;4.18;3.88;;;24.90;59.40;;;;;;5080427;28;20036;-22
2022/07/19 11:11:09;;;;;;;3.75;3.55;;;25.00;59.40;;;;;;5084826;27;20059;-24
2022/07/19 11:13:35;;;;;;;4.18;3.88;;;24.90;59.40;;;;;;5083220;27;20099;-25
2022/07/19 11:16:02;;;;;;;4.10;3.88;;;24.90;59.50;;;;;;5084590;27;20044;-23
2022/07/19 11:18:31;;;;;;;3.90;3.70;;;24.90;59.40;;;;;;5081009;28;20083;-22
2022/07/19 11:20:58;;;;;;;3.70;3.55;;;24.90;59.50;;;;;;5082258;27;20040;-21
2022/07/19 11:23:23;;;;;;;4.03;3.83;;;24.90;59.60;;;;;;5080935;27;20190;-23
2022/07/19 11:25:50;;;;;;;3.55;3.38;;;24.90;59.60;;;;;;5082261;28;20550;-26
2022/07/19 11:28:23;;;;;;;3.55;3.35;;;25.00;59.60;;;;;;5084204;27;20052;-23
2022/07/19 11:30:49;;;;;;;4.00;3.80;;;25.00;59.70;;;;;;5084778;27;20038;-22
2022/07/19 11:33:18;;;;;;;3.95;3.75;;;25.00;59.70;;;;;;5080166;28;20068;-22
2022/07/19 11:35:54;;;;;;;4.30;4.10;;;25.00;59.70;;;;;;5082365;27;20040;-21
2022/07/19 11:38:20;;;;;;;4.28;4.07;;;25.00;59.80;;;;;;5081991;27;20067;-22
2022/07/19 11:40:45;;;;;;;4.45;4.18;;;25.00;59.70;;;;;;5083452;28;20534;-25
2022/07/19 11:43:11;;;;;;;4.18;3.95;;;25.00;59.80;;;;;;5084566;28;20055;-25
2022/07/19 11:45:47;;;;;;;3.80;3.50;;;24.90;59.70;;;;;;5083541;27;20039;-23
2022/07/19 11:48:26;;;;;;;4.47;4.18;;;25.00;59.70;;;;;;5081869;27;20233;-29
2022/07/19 11:50:59;;;;;;;3.70;3.50;;;25.00;59.70;;;;;;5084628;27;20063;-23
2022/07/19 11:53:24;;;;;;;3.70;3.50;;;25.00;59.80;;;;;;5082423;28;20050;-27
2022/07/19 11:55:50;;;;;;;3.28;3.08;;;25.00;59.80;;;;;;5081943;27;20040;-25
2022/07/19 11:58:15;;;;;;;3.88;3.67;;;25.00;59.70;;;;;;5082706;27;20032;-22
2022/07/19 12:00:44;;;;;;;3.80;3.60;;;25.00;59.80;;;;;;5083839;27;20153;-24
2022/07/19 12:03:14;;;;;;;3.85;3.65;;;25.00;59.90;;;;;;5082824;27;22114;-23
2022/07/19 12:05:40;;;;;;;4.07;3.88;;;25.00;59.90;;;;;;5081041;27;20055;-25
2022/07/19 12:08:07;;;;;;;4.40;4.20;;;25.00;59.80;;;;;;5081302;27;20040;-26
2022/07/19 12:10:35;;;;;;;4.05;3.85;;;24.90;59.80;;;;;;5083800;27;20042;-21
2022/07/19 12:13:01;;;;;;;4.38;4.15;;;25.00;59.90;;;;;;5083819;27;20116;-21
2022/07/19 12:15:45;;;;;;;4.13;3.92;;;25.00;59.90;;;;;;5081084;28;20127;-24
2022/07/19 12:18:10;;;;;;;3.50;3.35;;;25.00;60.00;;;;;;5080988;27;20048;-24
2022/07/19 12:20:36;;;;;;;4.45;4.25;;;25.00;59.90;;;;;;5083198;28;20453;-24
2022/07/19 12:23:11;;;;;;;3.80;3.60;;;25.00;60.00;;;;;;5080061;27;20056;-21
2022/07/19 12:25:37;;;;;;;3.83;3.63;;;25.00;60.00;;;;;;5080118;28;20048;-22
2022/07/19 12:28:03;;;;;;;3.85;3.65;;;25.00;59.90;;;;;;5083787;27;20036;-23
2022/07/19 12:30:29;;;;;;;4.05;3.85;;;25.00;60.00;;;;;;5083249;27;20035;-23
2022/07/19 12:33:06;;;;;;;3.80;3.60;;;25.00;60.10;;;;;;5080794;27;20044;-18
2022/07/19 12:35:41;;;;;;;4.28;4.03;;;25.00;59.90;;;;;;5080549;27;20040;-18
2022/07/19 12:38:09;;;;;;;3.80;3.70;;;25.00;60.00;;;;;;5084010;27;20518;-19
2022/07/19 12:40:34;;;;;;;3.67;3.50;;;25.00;59.90;;;;;;5086447;27;20071;-18
2022/07/19 12:43:02;;;;;;;4.18;3.88;;;25.00;60.10;;;;;;5086724;27;20033;-18
2022/07/19 12:45:32;;;;;;;3.97;3.78;;;25.00;60.00;;;;;;5085213;28;20040;-18
2022/07/19 12:47:58;;;;;;;3.55;3.40;;;25.00;60.00;;;;;;5083917;27;20041;-24